createdAt,value
2018-07-21T00:00:14.701Z,25.30
2018-07-21T00:02:46.026Z,25.30
2018-07-21T00:05:17.156Z,25.20
2018-07-21T00:10:18.767Z,25.20
2018-07-21T00:12:50.276Z,25.20
2018-07-21T00:15:22.095Z,25.20
2018-07-21T00:17:53.054Z,25.10
2018-07-21T00:20:25.032Z,25.10
2018-07-21T00:22:56.040Z,25.10
2018-07-21T00:25:27.258Z,25.00
2018-07-21T00:27:59.072Z,25.00
2018-07-21T00:30:29.960Z,24.90
2018-07-21T00:33:02.635Z,24.90
2018-07-21T00:35:33.877Z,24.90
2018-07-21T00:38:05.038Z,24.90
2018-07-21T00:40:36.336Z,24.80
2018-07-21T00:43:07.875Z,24.80
2018-07-21T00:45:39.108Z,24.80
2018-07-21T00:48:10.272Z,24.80
2018-07-21T00:50:41.908Z,24.80
2018-07-21T00:53:13.574Z,24.70
2018-07-21T01:02:36.111Z,24.70
2018-07-21T01:05:07.255Z,24.40
2018-07-21T01:07:38.256Z,24.40
2018-07-21T01:10:09.845Z,24.30
2018-07-21T01:12:41.258Z,24.30
2018-07-21T01:15:12.514Z,24.30
2018-07-21T01:17:43.581Z,24.30
2018-07-21T01:20:15.822Z,24.30
2018-07-21T01:22:47.215Z,24.30
2018-07-21T01:25:18.864Z,24.20
2018-07-21T01:27:49.835Z,24.20
2018-07-21T01:30:21.278Z,24.20
2018-07-21T01:32:51.614Z,24.20
2018-07-21T01:35:22.808Z,24.20
2018-07-21T01:37:53.944Z,24.10
2018-07-21T01:40:25.100Z,24.10
2018-07-21T01:42:56.111Z,24.10
2018-07-21T01:45:28.018Z,24.10
2018-07-21T01:47:59.453Z,24.00
2018-07-21T01:50:30.730Z,24.00
2018-07-21T01:53:02.260Z,24.00
2018-07-21T01:55:33.817Z,24.00
2018-07-21T01:58:05.795Z,24.00
2018-07-21T02:00:36.749Z,24.00
2018-07-21T02:05:38.370Z,24.00
2018-07-21T02:08:09.378Z,24.00
2018-07-21T02:10:39.984Z,24.00
2018-07-21T02:13:11.619Z,23.90
2018-07-21T02:15:43.072Z,23.90
2018-07-21T02:18:14.093Z,23.90
2018-07-21T02:20:45.168Z,23.90
2018-07-21T02:25:55.185Z,23.90
2018-07-21T02:28:26.097Z,23.80
2018-07-21T02:30:58.231Z,23.80
2018-07-21T02:33:29.441Z,23.80
2018-07-21T02:36:00.465Z,23.80
2018-07-21T02:38:32.815Z,23.80
2018-07-21T02:41:04.886Z,23.80
2018-07-21T02:43:35.786Z,23.80
2018-07-21T02:46:07.132Z,23.80
2018-07-21T02:48:38.328Z,23.80
2018-07-21T02:51:09.699Z,23.70
2018-07-21T02:56:12.887Z,23.80
2018-07-21T02:58:45.181Z,23.70
2018-07-21T03:01:16.349Z,23.60
2018-07-21T03:03:47.940Z,23.50
2018-07-21T03:06:19.312Z,23.50
2018-07-21T03:08:51.064Z,23.40
2018-07-21T03:11:22.012Z,23.40
2018-07-21T03:13:53.601Z,23.30
2018-07-21T03:16:25.178Z,23.20
2018-07-21T03:18:56.842Z,23.10
2018-07-21T03:21:28.561Z,23.10
2018-07-21T03:23:59.578Z,23.00
2018-07-21T03:26:30.915Z,22.90
2018-07-21T03:29:01.823Z,22.90
2018-07-21T03:31:32.500Z,22.70
2018-07-21T03:34:04.330Z,22.50
2018-07-21T03:36:35.015Z,22.30
2018-07-21T03:39:08.379Z,22.20
2018-07-21T03:41:40.196Z,22.10
2018-07-21T03:44:11.205Z,22.00
2018-07-21T03:46:42.398Z,21.80
2018-07-21T03:49:14.954Z,21.70
2018-07-21T03:51:47.224Z,21.60
2018-07-21T03:54:19.912Z,21.50
2018-07-21T03:56:51.283Z,21.50
2018-07-21T03:59:23.167Z,21.60
2018-07-21T04:01:55.272Z,21.50
2018-07-21T04:04:27.636Z,21.50
2018-07-21T04:09:31.376Z,21.50
2018-07-21T04:12:03.439Z,21.50
2018-07-21T04:14:36.298Z,21.40
2018-07-21T04:17:13.080Z,21.40
2018-07-21T04:19:45.689Z,21.50
2018-07-21T04:22:18.261Z,21.60
2018-07-21T04:24:50.099Z,21.60
2018-07-21T04:27:22.440Z,21.70
2018-07-21T04:29:55.094Z,21.70
2018-07-21T04:32:26.462Z,21.70
2018-07-21T04:34:58.395Z,21.60
2018-07-21T04:37:30.700Z,21.60
2018-07-21T04:40:02.542Z,21.70
2018-07-21T04:42:33.759Z,21.70
2018-07-21T04:45:06.500Z,21.70
2018-07-21T04:47:38.562Z,21.80
2018-07-21T04:50:09.948Z,21.80
2018-07-21T04:52:41.146Z,21.70
2018-07-21T04:55:13.130Z,21.70
2018-07-21T04:57:44.851Z,21.70
2018-07-21T05:00:17.305Z,21.80
2018-07-21T05:02:48.272Z,21.80
2018-07-21T05:05:20.277Z,21.80
2018-07-21T05:07:52.475Z,21.80
2018-07-21T05:10:24.070Z,21.80
2018-07-21T05:12:55.929Z,21.90
2018-07-21T05:15:28.239Z,21.90
2018-07-21T05:17:59.731Z,22.00
2018-07-21T05:20:31.650Z,22.00
2018-07-21T05:23:03.582Z,22.10
2018-07-21T05:25:35.327Z,22.10
2018-07-21T05:28:07.076Z,22.10
2018-07-21T05:30:38.570Z,22.20
2018-07-21T05:33:10.247Z,22.20
2018-07-21T05:35:41.384Z,22.20
2018-07-21T05:38:13.864Z,22.20
2018-07-21T05:40:46.096Z,22.30
2018-07-21T05:43:18.195Z,22.30
2018-07-21T05:45:50.349Z,22.30
2018-07-21T05:48:22.177Z,22.30
2018-07-21T05:50:54.891Z,22.40
2018-07-21T05:53:27.166Z,22.40
2018-07-21T05:55:59.904Z,22.50
2018-07-21T05:58:32.129Z,22.50
2018-07-21T06:01:05.518Z,22.50
2018-07-21T06:03:37.736Z,22.50
2018-07-21T06:06:11.250Z,22.40
2018-07-21T06:08:43.391Z,22.40
2018-07-21T06:11:15.339Z,22.50
2018-07-21T06:13:47.365Z,22.40
2018-07-21T06:16:17.301Z,22.40
2018-07-21T06:18:47.385Z,22.40
2018-07-21T06:21:18.590Z,22.50
2018-07-21T06:23:49.386Z,22.50
2018-07-21T06:26:19.650Z,22.50
2018-07-21T06:28:51.817Z,22.50
2018-07-21T06:31:23.755Z,22.50
2018-07-21T06:33:55.730Z,22.60
2018-07-21T06:36:26.605Z,22.60
2018-07-21T06:38:59.191Z,22.70
2018-07-21T06:41:31.478Z,22.70
2018-07-21T06:44:02.955Z,22.80
2018-07-21T06:46:34.269Z,22.90
2018-07-21T06:49:05.432Z,22.90
2018-07-21T06:51:37.282Z,22.90
2018-07-21T06:54:08.308Z,22.90
2018-07-21T06:56:39.689Z,23.00
2018-07-21T06:59:12.084Z,23.10
2018-07-21T07:01:44.155Z,23.10
2018-07-21T07:04:16.958Z,23.10
2018-07-21T07:06:49.166Z,23.10
2018-07-21T07:09:21.251Z,23.10
2018-07-21T07:14:25.425Z,23.20
2018-07-21T07:16:57.717Z,23.30
2018-07-21T07:19:29.340Z,23.30
2018-07-21T07:22:01.344Z,23.40
2018-07-21T07:24:34.263Z,23.50
2018-07-21T07:27:05.908Z,23.50
2018-07-21T07:29:38.034Z,23.60
2018-07-21T07:34:41.435Z,23.60
2018-07-21T07:37:13.248Z,23.60
2018-07-21T07:39:44.999Z,23.60
2018-07-21T07:42:17.910Z,23.50
2018-07-21T07:44:49.662Z,23.50
2018-07-21T07:47:21.767Z,23.50
2018-07-21T07:49:54.006Z,23.40
2018-07-21T07:52:25.474Z,23.40
2018-07-21T07:54:58.020Z,23.40
2018-07-21T07:57:29.569Z,23.50
2018-07-21T08:00:00.901Z,23.40
2018-07-21T08:02:32.663Z,23.40
2018-07-21T08:05:04.386Z,23.30
2018-07-21T08:07:36.101Z,23.20
2018-07-21T08:10:08.019Z,23.20
2018-07-21T08:12:39.270Z,23.20
2018-07-21T08:17:42.993Z,23.20
2018-07-21T08:20:16.080Z,23.30
2018-07-21T08:22:48.045Z,23.30
2018-07-21T08:25:19.745Z,23.40
2018-07-21T08:27:50.697Z,23.40
2018-07-21T08:30:22.649Z,23.50
2018-07-21T08:32:55.840Z,23.50
2018-07-21T08:37:58.651Z,23.50
2018-07-21T08:40:30.018Z,23.50
2018-07-21T08:43:01.711Z,23.60
2018-07-21T08:45:33.448Z,23.60
2018-07-21T08:48:05.287Z,23.60
2018-07-21T08:50:37.425Z,23.50
2018-07-21T08:53:08.773Z,23.50
2018-07-21T08:55:39.935Z,23.60
2018-07-21T08:58:11.818Z,23.60
2018-07-21T09:00:43.974Z,23.60
2018-07-21T09:03:15.174Z,23.50
2018-07-21T09:05:46.592Z,23.50
2018-07-21T09:08:18.733Z,23.50
2018-07-21T09:10:49.359Z,23.50
2018-07-21T09:13:20.368Z,23.50
2018-07-21T09:15:52.006Z,23.50
2018-07-21T09:18:23.244Z,23.50
2018-07-21T09:20:54.491Z,23.40
2018-07-21T09:23:25.919Z,23.30
2018-07-21T09:25:57.275Z,23.30
2018-07-21T09:28:29.367Z,23.30
2018-07-21T09:31:00.223Z,23.30
2018-07-21T09:33:32.694Z,23.40
2018-07-21T09:36:04.060Z,23.40
2018-07-21T09:41:04.953Z,23.30
2018-07-21T09:43:36.473Z,23.30
2018-07-21T09:46:08.193Z,23.30
2018-07-21T09:48:39.040Z,23.30
2018-07-21T09:51:10.173Z,23.30
2018-07-21T09:53:42.807Z,23.40
2018-07-21T09:56:14.093Z,23.40
2018-07-21T09:58:46.533Z,23.40
2018-07-21T10:01:18.256Z,23.40
2018-07-21T10:03:50.437Z,23.40
2018-07-21T10:06:21.791Z,23.40
2018-07-21T10:08:53.479Z,23.40
2018-07-21T10:11:24.727Z,23.40
2018-07-21T10:13:56.683Z,23.40
2018-07-21T10:16:27.783Z,23.40
2018-07-21T10:18:58.981Z,23.40
2018-07-21T10:21:30.636Z,23.40
2018-07-21T10:24:08.183Z,23.50
2018-07-21T10:26:44.203Z,23.50
2018-07-21T10:29:15.892Z,23.50
2018-07-21T10:31:47.081Z,23.50
2018-07-21T10:34:18.533Z,23.50
2018-07-21T10:36:49.604Z,23.50
2018-07-21T10:39:20.957Z,23.50
2018-07-21T10:41:52.325Z,23.50
2018-07-21T10:44:24.370Z,23.50
2018-07-21T10:46:54.668Z,23.50
2018-07-21T10:49:25.914Z,23.50
2018-07-21T10:51:57.585Z,23.50
2018-07-21T10:54:28.660Z,23.50
2018-07-21T10:56:59.758Z,23.50
2018-07-21T10:59:31.472Z,23.50
2018-07-21T11:02:02.903Z,23.50
2018-07-21T11:04:34.175Z,23.50
2018-07-21T11:07:04.982Z,23.40
2018-07-21T11:09:36.242Z,23.40
2018-07-21T11:12:07.187Z,23.40
2018-07-21T11:14:38.551Z,23.30
2018-07-21T11:17:09.313Z,23.30
2018-07-21T11:19:40.959Z,23.20
2018-07-21T11:22:12.818Z,23.20
2018-07-21T11:24:44.404Z,23.10
2018-07-21T11:27:14.740Z,23.10
2018-07-21T11:29:45.276Z,23.10
2018-07-21T11:32:17.070Z,23.10
2018-07-21T11:34:48.972Z,23.10
2018-07-21T11:37:20.918Z,23.10
2018-07-21T11:39:52.439Z,23.10
2018-07-21T11:42:23.914Z,23.00
2018-07-21T11:44:55.558Z,23.00
2018-07-21T11:47:26.688Z,23.00
2018-07-21T11:49:58.160Z,23.00
2018-07-21T11:52:28.493Z,23.00
2018-07-21T11:54:59.591Z,23.10
2018-07-21T11:57:31.151Z,23.10
2018-07-21T12:00:02.512Z,23.10
2018-07-21T12:02:33.875Z,23.10
2018-07-21T12:05:06.256Z,23.00
2018-07-21T12:07:37.638Z,23.00
2018-07-21T12:10:07.955Z,23.00
2018-07-21T12:12:38.940Z,23.00
2018-07-21T12:15:09.960Z,22.90
2018-07-21T12:17:40.114Z,23.00
2018-07-21T12:20:11.503Z,23.00
2018-07-21T12:22:42.138Z,23.00
2018-07-21T12:25:12.536Z,23.00
2018-07-21T12:27:44.337Z,23.00
2018-07-21T12:32:45.818Z,23.10
2018-07-21T12:35:17.583Z,23.10
2018-07-21T12:37:48.524Z,23.10
2018-07-21T12:40:19.668Z,23.10
2018-07-21T12:45:21.325Z,23.10
2018-07-21T12:47:52.536Z,23.20
2018-07-21T12:50:23.282Z,23.20
2018-07-21T12:52:54.614Z,23.20
2018-07-21T12:55:25.756Z,23.30
2018-07-21T13:00:27.980Z,23.30
2018-07-21T13:02:58.788Z,23.30
2018-07-21T13:05:30.366Z,23.40
2018-07-21T13:08:01.735Z,23.40
2018-07-21T13:10:33.482Z,23.40
2018-07-21T13:13:04.678Z,23.50
2018-07-21T13:15:36.133Z,23.50
2018-07-21T13:18:07.420Z,23.50
2018-07-21T13:20:38.675Z,23.50
2018-07-21T13:23:08.793Z,23.60
2018-07-21T13:25:39.308Z,23.60
2018-07-21T13:28:09.826Z,23.60
2018-07-21T13:30:40.764Z,23.70
2018-07-21T13:33:12.277Z,23.70
2018-07-21T13:35:43.594Z,23.70
2018-07-21T13:38:14.245Z,23.70
2018-07-21T13:40:45.773Z,23.80
2018-07-21T13:43:17.012Z,23.80
2018-07-21T13:45:48.104Z,23.80
2018-07-21T13:48:18.145Z,23.80
2018-07-21T13:50:50.023Z,23.80
2018-07-21T13:53:21.671Z,23.80
2018-07-21T13:55:52.818Z,23.80
2018-07-21T13:58:23.867Z,23.80
2018-07-21T14:00:55.540Z,23.80
2018-07-21T14:03:25.818Z,23.80
2018-07-21T14:05:58.555Z,23.80
2018-07-21T14:08:30.060Z,23.80
2018-07-21T14:11:00.709Z,23.80
2018-07-21T14:13:31.706Z,23.90
2018-07-21T14:16:03.006Z,23.90
2018-07-21T14:18:34.236Z,23.90
2018-07-21T14:21:08.163Z,24.00
2018-07-21T14:23:40.068Z,24.00
2018-07-21T14:26:11.312Z,24.00
2018-07-21T14:28:42.840Z,24.00
2018-07-21T14:31:14.425Z,24.00
2018-07-21T14:33:45.388Z,24.00
2018-07-21T14:36:17.358Z,24.00
2018-07-21T14:38:48.489Z,24.00
2018-07-21T14:41:19.830Z,24.10
2018-07-21T14:43:50.692Z,24.10
2018-07-21T14:46:21.049Z,24.10
2018-07-21T14:48:52.089Z,24.10
2018-07-21T14:51:23.238Z,24.10
2018-07-21T14:53:54.218Z,24.10
2018-07-21T14:56:25.629Z,24.20
2018-07-21T14:58:56.242Z,24.10
2018-07-21T15:01:27.752Z,24.20
2018-07-21T15:03:59.181Z,24.20
2018-07-21T15:06:30.727Z,24.20
2018-07-21T15:09:01.254Z,24.20
2018-07-21T15:11:33.007Z,24.20
2018-07-21T15:14:03.754Z,24.20
2018-07-21T15:19:05.770Z,24.20
2018-07-21T15:21:37.448Z,24.20
2018-07-21T15:24:08.410Z,24.20
2018-07-21T15:26:39.100Z,24.30
2018-07-21T15:29:10.197Z,24.30
2018-07-21T15:31:41.405Z,24.30
2018-07-21T15:36:43.220Z,24.30
2018-07-21T15:39:14.315Z,24.30
2018-07-21T15:41:46.083Z,24.40
2018-07-21T15:44:18.270Z,24.40
2018-07-21T15:46:49.533Z,24.40
2018-07-21T15:49:20.520Z,24.40
2018-07-21T15:51:50.810Z,24.40
2018-07-21T15:54:21.930Z,24.40
2018-07-21T15:56:53.484Z,24.40
2018-07-21T15:59:24.228Z,24.40
2018-07-21T16:01:56.083Z,24.40
2018-07-21T16:04:27.763Z,24.40
2018-07-21T16:06:59.771Z,24.40
2018-07-21T16:09:31.148Z,24.50
2018-07-21T16:12:02.129Z,24.50
2018-07-21T16:14:33.787Z,24.50
2018-07-21T16:17:04.911Z,24.50
2018-07-21T16:19:35.903Z,24.50
2018-07-21T16:22:06.986Z,24.50
2018-07-21T16:24:38.484Z,24.50
2018-07-21T16:27:09.309Z,24.50
2018-07-21T16:29:40.618Z,24.50
2018-07-21T16:32:13.133Z,24.40
2018-07-21T16:34:44.607Z,24.40
2018-07-21T16:37:15.780Z,24.40
2018-07-21T16:39:46.803Z,24.40
2018-07-21T16:42:17.816Z,24.40
2018-07-21T16:44:49.994Z,24.40
2018-07-21T16:47:21.840Z,24.40
2018-07-21T16:49:52.462Z,24.40
2018-07-21T16:52:23.994Z,24.40
2018-07-21T16:54:55.209Z,24.40
2018-07-21T16:57:26.205Z,24.30
2018-07-21T16:59:57.268Z,24.30
2018-07-21T17:02:28.350Z,24.30
2018-07-21T17:04:59.116Z,24.40
2018-07-21T17:07:30.187Z,24.40
2018-07-21T17:10:01.294Z,24.40
2018-07-21T17:12:32.683Z,24.40
2018-07-21T17:15:03.455Z,24.40
2018-07-21T17:17:33.646Z,24.40
2018-07-21T17:20:04.550Z,24.30
2018-07-21T17:22:36.221Z,24.30
2018-07-21T17:25:08.535Z,24.30
2018-07-21T17:27:39.381Z,24.30
2018-07-21T17:30:09.607Z,24.30
2018-07-21T17:32:39.962Z,24.30
2018-07-21T17:35:11.358Z,24.30
2018-07-21T17:37:43.106Z,24.30
2018-07-21T17:40:14.038Z,24.20
2018-07-21T17:42:45.121Z,24.20
2018-07-21T17:45:16.092Z,24.20
2018-07-21T17:47:47.066Z,24.10
2018-07-21T17:50:17.840Z,24.10
2018-07-21T17:52:48.144Z,24.10
2018-07-21T17:55:19.266Z,24.10
2018-07-21T17:57:50.246Z,24.10
2018-07-21T18:00:21.413Z,24.10
2018-07-21T18:02:52.802Z,24.00
2018-07-21T18:05:24.087Z,24.00
2018-07-21T18:07:55.672Z,23.90
2018-07-21T18:10:25.981Z,23.90
2018-07-21T18:12:57.013Z,23.90
2018-07-21T18:15:28.213Z,23.90
2018-07-21T18:17:59.599Z,23.90
2018-07-21T18:20:31.047Z,23.80
2018-07-21T18:23:02.462Z,23.80
2018-07-21T18:25:33.291Z,23.80
2018-07-21T18:28:04.942Z,23.80
2018-07-21T18:30:35.474Z,23.70
2018-07-21T18:33:06.658Z,23.70
2018-07-21T18:35:36.857Z,23.70
2018-07-21T18:38:08.814Z,23.70
2018-07-21T18:40:39.773Z,23.60
2018-07-21T18:43:11.353Z,23.60
2018-07-21T18:45:42.370Z,23.50
2018-07-21T18:48:13.294Z,23.40
2018-07-21T18:50:43.911Z,23.30
2018-07-21T18:53:14.300Z,23.20
2018-07-21T18:55:44.719Z,23.20
2018-07-21T18:58:15.685Z,23.20
2018-07-21T19:00:47.056Z,23.20
2018-07-21T19:03:18.133Z,23.10
2018-07-21T19:05:48.572Z,23.10
2018-07-21T19:08:25.516Z,23.10
2018-07-21T19:10:55.917Z,23.00
2018-07-21T19:13:27.090Z,23.00
2018-07-21T19:16:02.710Z,23.00
2018-07-21T19:18:34.616Z,23.00
2018-07-21T19:21:10.771Z,23.00
2018-07-21T19:23:41.701Z,23.00
2018-07-21T19:26:18.481Z,23.00
2018-07-21T19:28:49.576Z,23.00
2018-07-21T19:31:21.418Z,22.90
2018-07-21T19:33:52.095Z,22.90
2018-07-21T19:36:24.606Z,22.90
2018-07-21T19:38:55.973Z,22.80
2018-07-21T19:41:31.462Z,22.80
2018-07-21T19:44:03.531Z,22.70
2018-07-21T19:46:35.263Z,22.70
2018-07-21T19:49:06.993Z,22.60
2018-07-21T19:51:38.364Z,22.60
2018-07-21T19:56:40.260Z,22.50
2018-07-21T19:59:12.379Z,22.50
2018-07-21T20:01:43.421Z,22.50
2018-07-21T20:04:14.764Z,22.40
2018-07-21T20:06:45.935Z,22.40
2018-07-21T20:09:16.523Z,22.40
2018-07-21T20:11:47.920Z,22.30
2018-07-21T20:14:19.472Z,22.30
2018-07-21T20:16:50.271Z,22.30
2018-07-21T20:19:21.963Z,22.30
2018-07-21T20:21:52.755Z,22.30
2018-07-21T20:24:24.011Z,22.30
2018-07-21T20:26:55.008Z,22.20
2018-07-21T20:29:25.557Z,22.20
2018-07-21T20:31:56.521Z,22.20
2018-07-21T20:34:28.591Z,22.20
2018-07-21T20:37:00.364Z,22.10
2018-07-21T20:39:32.024Z,22.10
2018-07-21T20:44:35.572Z,22.00
2018-07-21T20:47:06.762Z,22.00
2018-07-21T20:49:37.653Z,22.00
2018-07-21T20:52:08.822Z,22.00
2018-07-21T20:54:40.453Z,21.90
2018-07-21T20:57:11.951Z,21.90
2018-07-21T20:59:43.689Z,21.90
2018-07-21T21:02:15.148Z,21.90
2018-07-21T21:04:45.147Z,21.90
2018-07-21T21:07:16.596Z,21.80
2018-07-21T21:09:48.812Z,21.70
2018-07-21T21:12:20.093Z,21.70
2018-07-21T21:14:50.566Z,21.70
2018-07-21T21:17:21.182Z,21.70
2018-07-21T21:19:53.099Z,21.70
2018-07-21T21:22:24.443Z,21.70
2018-07-21T21:24:55.380Z,21.60
2018-07-21T21:27:26.101Z,21.60
2018-07-21T21:29:58.218Z,21.60
2018-07-21T21:32:29.186Z,21.60
2018-07-21T21:35:00.633Z,21.50
2018-07-21T21:37:32.156Z,21.50
2018-07-21T21:40:03.497Z,21.50
2018-07-21T21:42:34.408Z,21.50
2018-07-21T21:45:05.561Z,21.50
2018-07-21T21:47:36.847Z,21.50
2018-07-21T21:50:08.167Z,21.40
2018-07-21T21:52:39.250Z,21.50
2018-07-21T21:55:11.013Z,21.40
2018-07-21T21:57:41.920Z,21.40
2018-07-21T22:00:13.359Z,21.50
2018-07-21T22:02:44.537Z,21.50
2018-07-21T22:05:15.894Z,21.40
2018-07-21T22:10:17.047Z,21.40
2018-07-21T22:12:48.439Z,21.40
2018-07-21T22:15:22.593Z,21.40
2018-07-21T22:17:53.935Z,21.40
2018-07-21T22:20:26.119Z,21.30
2018-07-21T22:25:27.831Z,21.30
2018-07-21T22:27:58.363Z,21.30
2018-07-21T22:30:29.682Z,21.20
2018-07-21T22:35:32.209Z,21.20
2018-07-21T22:40:33.547Z,21.20
2018-07-21T22:43:04.124Z,21.10
2018-07-21T22:48:07.414Z,21.10
2018-07-21T22:50:38.857Z,21.00
2018-07-21T22:53:09.038Z,21.00
2018-07-21T22:55:41.215Z,20.90
2018-07-21T22:58:13.005Z,20.90
2018-07-21T23:05:44.203Z,20.80
2018-07-21T23:08:15.264Z,20.80
2018-07-21T23:10:46.951Z,20.80
2018-07-21T23:15:47.929Z,20.70
2018-07-21T23:18:19.968Z,20.70
2018-07-21T23:20:51.910Z,20.70
2018-07-21T23:23:23.068Z,20.70
2018-07-21T23:25:53.666Z,20.70
2018-07-21T23:28:26.001Z,20.70
2018-07-21T23:30:57.046Z,20.70
2018-07-21T23:33:28.052Z,20.70
2018-07-21T23:35:59.985Z,20.60
2018-07-21T23:38:31.085Z,20.60
2018-07-21T23:41:03.263Z,20.60
2018-07-21T23:43:34.064Z,20.60
2018-07-21T23:46:10.182Z,20.60
2018-07-21T23:48:41.625Z,20.60
2018-07-21T23:51:13.526Z,20.50
2018-07-21T23:53:45.197Z,20.50
2018-07-21T23:56:16.416Z,20.40
2018-07-21T23:58:47.023Z,20.40
